sensor_id;sensor_type;location;lat;lon;timestamp;pressure;altitude;pressure_sealevel;temperature;humidity
50434;BME280;36361;38.954;-9.002;2023-06-14T00:00:00;100796.13;;;19.55;100.00
50434;BME280;36361;38.954;-9.002;2023-06-14T00:01:01;100799.81;;;19.71;100.00
50434;BME280;36361;38.954;-9.002;2023-06-14T00:02:04;100803.16;;;20.09;100.00
50434;BME280;36361;38.954;-9.002;2023-06-14T00:03:08;100800.13;;;20.10;100.00
50434;BME280;36361;38.954;-9.002;2023-06-14T00:04:10;100803.97;;;19.84;100.00
50434;BME280;36361;38.954;-9.002;2023-06-14T00:05:11;100807.84;;;19.78;100.00
50434;BME280;36361;38.954;-9.002;2023-06-14T00:06:15;100797.53;;;19.48;100.00
50434;BME280;36361;38.954;-9.002;2023-06-14T00:07:16;100798.72;;;19.93;100.00
50434;BME280;36361;38.954;-9.002;2023-06-14T00:08:17;100792.41;;;20.43;100.00
50434;BME280;36361;38.954;-9.002;2023-06-14T00:09:19;100789.63;;;20.07;100.00
50434;BME280;36361;38.954;-9.002;2023-06-14T00:10:22;100789.63;;;20.07;100.00
50434;BME280;36361;38.954;-9.002;2023-06-14T00:11:23;100785.75;;;20.69;100.00
50434;BME280;36361;38.954;-9.002;2023-06-14T00:12:24;100784.59;;;20.86;100.00
50434;BME280;36361;38.954;-9.002;2023-06-14T00:13:25;100788.47;;;20.85;100.00
50434;BME280;36361;38.954;-9.002;2023-06-14T00:14:26;100783.13;;;21.09;100.00
50434;BME280;36361;38.954;-9.002;2023-06-14T00:15:27;100783.94;;;21.14;100.00
50434;BME280;36361;38.954;-9.002;2023-06-14T00:16:28;100791.53;;;21.53;100.00
50434;BME280;36361;38.954;-9.002;2023-06-14T00:17:29;100801.25;;;21.90;100.00
50434;BME280;36361;38.954;-9.002;2023-06-14T00:18:30;100795.13;;;21.93;100.00
50434;BME280;36361;38.954;-9.002;2023-06-14T00:19:31;100790.34;;;22.08;100.00
50434;BME280;36361;38.954;-9.002;2023-06-14T00:20:38;100792.13;;;21.89;100.00
50434;BME280;36361;38.954;-9.002;2023-06-14T00:21:39;100787.16;;;21.42;100.00
50434;BME280;36361;38.954;-9.002;2023-06-14T00:22:41;100785.22;;;21.37;100.00
50434;BME280;36361;38.954;-9.002;2023-06-14T00:23:41;100790.00;;;21.11;100.00
50434;BME280;36361;38.954;-9.002;2023-06-14T00:24:42;100791.09;;;21.25;100.00
50434;BME280;36361;38.954;-9.002;2023-06-14T00:25:43;100790.00;;;21.16;100.00
50434;BME280;36361;38.954;-9.002;2023-06-14T00:26:44;100789.47;;;21.09;100.00
50434;BME280;36361;38.954;-9.002;2023-06-14T00:27:45;100784.38;;;20.62;100.00
50434;BME280;36361;38.954;-9.002;2023-06-14T00:28:46;100781.34;;;20.43;100.00
50434;BME280;36361;38.954;-9.002;2023-06-14T00:29:47;100784.09;;;20.17;100.00
50434;BME280;36361;38.954;-9.002;2023-06-14T00:30:48;100784.94;;;20.18;100.00
50434;BME280;36361;38.954;-9.002;2023-06-14T00:31:48;100775.81;;;20.02;100.00
50434;BME280;36361;38.954;-9.002;2023-06-14T00:32:50;100782.97;;;19.83;100.00
50434;BME280;36361;38.954;-9.002;2023-06-14T00:33:52;100776.63;;;19.77;100.00
50434;BME280;36361;38.954;-9.002;2023-06-14T00:34:52;100778.00;;;19.80;100.00
50434;BME280;36361;38.954;-9.002;2023-06-14T00:35:53;100775.78;;;19.72;100.00
50434;BME280;36361;38.954;-9.002;2023-06-14T00:36:54;100767.41;;;19.46;100.00
50434;BME280;36361;38.954;-9.002;2023-06-14T00:37:55;100765.81;;;19.66;100.00
50434;BME280;36361;38.954;-9.002;2023-06-14T00:38:56;100762.81;;;19.67;100.00
50434;BME280;36361;38.954;-9.002;2023-06-14T00:39:57;100761.97;;;19.67;100.00
50434;BME280;36361;38.954;-9.002;2023-06-14T00:41:04;100761.16;;;19.66;100.00
50434;BME280;36361;38.954;-9.002;2023-06-14T00:42:05;100769.16;;;19.93;100.00
50434;BME280;36361;38.954;-9.002;2023-06-14T00:43:06;100762.81;;;19.93;100.00
50434;BME280;36361;38.954;-9.002;2023-06-14T00:44:07;100755.34;;;19.93;100.00
50434;BME280;36361;38.954;-9.002;2023-06-14T00:45:15;100759.25;;;20.07;100.00
50434;BME280;36361;38.954;-9.002;2023-06-14T00:46:16;100762.00;;;19.97;100.00
50434;BME280;36361;38.954;-9.002;2023-06-14T00:47:23;100762.00;;;19.77;100.00
50434;BME280;36361;38.954;-9.002;2023-06-14T00:48:27;100758.41;;;20.22;100.00
50434;BME280;36361;38.954;-9.002;2023-06-14T00:49:29;100763.63;;;20.29;100.00
50434;BME280;36361;38.954;-9.002;2023-06-14T00:50:30;100758.16;;;20.13;100.00
50434;BME280;36361;38.954;-9.002;2023-06-14T00:51:39;100744.34;;;20.13;100.00
50434;BME280;36361;38.954;-9.002;2023-06-14T00:52:40;100758.16;;;20.13;100.00
50434;BME280;36361;38.954;-9.002;2023-06-14T00:53:41;100761.44;;;20.15;100.00
50434;BME280;36361;38.954;-9.002;2023-06-14T00:54:47;100757.56;;;20.01;100.00
50434;BME280;36361;38.954;-9.002;2023-06-14T00:55:48;100759.44;;;19.50;100.00
50434;BME280;36361;38.954;-9.002;2023-06-14T00:56:50;100755.78;;;19.29;100.00
50434;BME280;36361;38.954;-9.002;2023-06-14T00:57:54;100755.22;;;19.22;100.00
50434;BME280;36361;38.954;-9.002;2023-06-14T00:58:56;100760.38;;;19.08;100.00
50434;BME280;36361;38.954;-9.002;2023-06-14T00:59:57;100752.47;;;19.27;100.00
50434;BME280;36361;38.954;-9.002;2023-06-14T01:00:57;100754.75;;;19.50;100.00
50434;BME280;36361;38.954;-9.002;2023-06-14T01:01:58;100754.28;;;20.04;100.00
50434;BME280;36361;38.954;-9.002;2023-06-14T01:02:59;100743.50;;;20.03;100.00
50434;BME280;36361;38.954;-9.002;2023-06-14T01:04:02;100747.56;;;20.66;100.00
50434;BME280;36361;38.954;-9.002;2023-06-14T01:05:04;100739.72;;;20.99;100.00
50434;BME280;36361;38.954;-9.002;2023-06-14T01:06:22;100745.25;;;21.04;100.00
50434;BME280;36361;38.954;-9.002;2023-06-14T01:09:14;100748.47;;;21.32;100.00
50434;BME280;36361;38.954;-9.002;2023-06-14T01:10:35;100748.47;;;21.26;100.00
50434;BME280;36361;38.954;-9.002;2023-06-14T01:13:12;100756.22;;;21.24;100.00
50434;BME280;36361;38.954;-9.002;2023-06-14T01:14:23;100742.72;;;21.08;100.00
50434;BME280;36361;38.954;-9.002;2023-06-14T01:15:33;100750.25;;;20.92;100.00
50434;BME280;36361;38.954;-9.002;2023-06-14T01:16:35;100750.91;;;20.68;100.00
50434;BME280;36361;38.954;-9.002;2023-06-14T01:17:36;100740.94;;;20.62;100.00
50434;BME280;36361;38.954;-9.002;2023-06-14T01:18:44;100751.50;;;20.04;100.00
50434;BME280;36361;38.954;-9.002;2023-06-14T01:19:48;100752.56;;;19.63;100.00
50434;BME280;36361;38.954;-9.002;2023-06-14T01:20:58;100742.66;;;19.87;100.00
50434;BME280;36361;38.954;-9.002;2023-06-14T01:22:00;100752.59;;;19.78;100.00
50434;BME280;36361;38.954;-9.002;2023-06-14T01:23:01;100745.97;;;19.74;100.00
50434;BME280;36361;38.954;-9.002;2023-06-14T01:24:11;100749.81;;;19.63;100.00
50434;BME280;36361;38.954;-9.002;2023-06-14T01:25:11;100743.72;;;19.66;100.00
50434;BME280;36361;38.954;-9.002;2023-06-14T01:26:13;100748.44;;;19.65;100.00
50434;BME280;36361;38.954;-9.002;2023-06-14T01:27:16;100739.91;;;20.23;100.00
50434;BME280;36361;38.954;-9.002;2023-06-14T01:28:29;100746.53;;;20.32;100.00
50434;BME280;36361;38.954;-9.002;2023-06-14T01:29:33;100742.91;;;20.52;100.00
50434;BME280;36361;38.954;-9.002;2023-06-14T01:30:48;100734.38;;;20.23;100.00
50434;BME280;36361;38.954;-9.002;2023-06-14T01:31:53;100735.19;;;20.49;100.00
50434;BME280;36361;38.954;-9.002;2023-06-14T01:32:55;100748.19;;;20.43;100.00
50434;BME280;36361;38.954;-9.002;2023-06-14T01:33:57;100737.66;;;20.60;100.00
50434;BME280;36361;38.954;-9.002;2023-06-14T01:35:00;100737.97;;;20.43;100.00
50434;BME280;36361;38.954;-9.002;2023-06-14T01:36:09;100736.88;;;20.04;100.00
50434;BME280;36361;38.954;-9.002;2023-06-14T01:37:11;100749.88;;;20.03;100.00
50434;BME280;36361;38.954;-9.002;2023-06-14T01:38:15;100737.69;;;20.25;100.00
50434;BME280;36361;38.954;-9.002;2023-06-14T01:39:25;100731.91;;;20.06;100.00
50434;BME280;36361;38.954;-9.002;2023-06-14T01:40:33;100746.00;;;20.04;100.00
50434;BME280;36361;38.954;-9.002;2023-06-14T01:41:41;100737.94;;;19.62;100.00
50434;BME280;36361;38.954;-9.002;2023-06-14T01:42:43;100730.78;;;19.92;100.00
50434;BME280;36361;38.954;-9.002;2023-06-14T01:43:49;100734.34;;;19.56;100.00
50434;BME280;36361;38.954;-9.002;2023-06-14T01:44:51;100727.72;;;20.18;100.00
50434;BME280;36361;38.954;-9.002;2023-06-14T01:45:54;100727.75;;;20.24;100.00
50434;BME280;36361;38.954;-9.002;2023-06-14T01:46:56;100737.41;;;20.31;100.00
50434;BME280;36361;38.954;-9.002;2023-06-14T01:47:58;100726.31;;;20.36;100.00
50434;BME280;36361;38.954;-9.002;2023-06-14T01:48:59;100731.03;;;20.51;100.00
50434;BME280;36361;38.954;-9.002;2023-06-14T01:50:02;100735.44;;;20.42;100.00
50434;BME280;36361;38.954;-9.002;2023-06-14T01:51:04;100734.75;;;20.96;100.00
50434;BME280;36361;38.954;-9.002;2023-06-14T01:52:06;100736.31;;;21.17;100.00
50434;BME280;36361;38.954;-9.002;2023-06-14T01:53:10;100734.56;;;21.37;100.00
50434;BME280;36361;38.954;-9.002;2023-06-14T01:54:11;100743.81;;;21.12;100.00
50434;BME280;36361;38.954;-9.002;2023-06-14T01:55:13;100727.38;;;21.36;100.00
50434;BME280;36361;38.954;-9.002;2023-06-14T01:56:16;100732.41;;;21.23;100.00
50434;BME280;36361;38.954;-9.002;2023-06-14T01:57:17;100737.94;;;21.23;100.00
50434;BME280;36361;38.954;-9.002;2023-06-14T01:58:18;100741.91;;;21.02;100.00
50434;BME280;36361;38.954;-9.002;2023-06-14T01:59:19;100736.94;;;20.99;100.00
50434;BME280;36361;38.954;-9.002;2023-06-14T02:00:20;100735.94;;;20.74;100.00
50434;BME280;36361;38.954;-9.002;2023-06-14T02:01:22;100737.63;;;20.65;100.00
50434;BME280;36361;38.954;-9.002;2023-06-14T02:02:23;100737.66;;;20.45;100.00
50434;BME280;36361;38.954;-9.002;2023-06-14T02:03:24;100737.50;;;21.01;100.00
50434;BME280;36361;38.954;-9.002;2023-06-14T02:04:26;100738.84;;;21.14;100.00
50434;BME280;36361;38.954;-9.002;2023-06-14T02:05:27;100743.59;;;20.98;100.00
50434;BME280;36361;38.954;-9.002;2023-06-14T02:06:28;100748.22;;;21.18;100.00
50434;BME280;36361;38.954;-9.002;2023-06-14T02:07:32;100742.94;;;21.21;100.00
50434;BME280;36361;38.954;-9.002;2023-06-14T02:08:33;100744.44;;;21.58;100.00
50434;BME280;36361;38.954;-9.002;2023-06-14T02:09:35;100744.44;;;21.53;100.00
50434;BME280;36361;38.954;-9.002;2023-06-14T02:10:38;100740.91;;;21.86;100.00
50434;BME280;36361;38.954;-9.002;2023-06-14T02:11:39;100744.38;;;21.63;100.00
50434;BME280;36361;38.954;-9.002;2023-06-14T02:12:40;100738.84;;;21.63;100.00
50434;BME280;36361;38.954;-9.002;2023-06-14T02:13:41;100733.81;;;21.70;100.00
50434;BME280;36361;38.954;-9.002;2023-06-14T02:14:42;100732.13;;;21.30;100.00
50434;BME280;36361;38.954;-9.002;2023-06-14T02:15:43;100736.13;;;21.58;100.00
50434;BME280;36361;38.954;-9.002;2023-06-14T02:16:44;100737.63;;;21.79;100.00
50434;BME280;36361;38.954;-9.002;2023-06-14T02:17:49;100740.41;;;21.74;100.00
50434;BME280;36361;38.954;-9.002;2023-06-14T02:18:51;100734.63;;;21.71;100.00
50434;BME280;36361;38.954;-9.002;2023-06-14T02:19:52;100743.78;;;21.66;100.00
50434;BME280;36361;38.954;-9.002;2023-06-14T02:20:55;100735.75;;;21.31;100.00
50434;BME280;36361;38.954;-9.002;2023-06-14T02:21:56;100742.88;;;21.37;100.00
50434;BME280;36361;38.954;-9.002;2023-06-14T02:22:57;100738.16;;;21.37;100.00
50434;BME280;36361;38.954;-9.002;2023-06-14T02:23:58;100734.56;;;21.37;100.00
50434;BME280;36361;38.954;-9.002;2023-06-14T02:25:02;100734.88;;;21.35;100.00
50434;BME280;36361;38.954;-9.002;2023-06-14T02:26:02;100728.00;;;21.67;100.00
50434;BME280;36361;38.954;-9.002;2023-06-14T02:27:07;100724.59;;;21.41;100.00
50434;BME280;36361;38.954;-9.002;2023-06-14T02:28:11;100736.16;;;21.48;100.00
50434;BME280;36361;38.954;-9.002;2023-06-14T02:29:13;100723.84;;;21.69;100.00
50434;BME280;36361;38.954;-9.002;2023-06-14T02:30:15;100723.44;;;21.47;100.00
50434;BME280;36361;38.954;-9.002;2023-06-14T02:31:16;100717.94;;;21.42;100.00
50434;BME280;36361;38.954;-9.002;2023-06-14T02:32:17;100726.06;;;21.18;100.00
50434;BME280;36361;38.954;-9.002;2023-06-14T02:33:19;100723.78;;;21.35;100.00
50434;BME280;36361;38.954;-9.002;2023-06-14T02:34:20;100721.25;;;21.83;100.00
50434;BME280;36361;38.954;-9.002;2023-06-14T02:35:22;100725.44;;;21.36;100.00
50434;BME280;36361;38.954;-9.002;2023-06-14T02:36:29;100717.16;;;21.26;100.00
50434;BME280;36361;38.954;-9.002;2023-06-14T02:37:30;100721.13;;;21.15;100.00
50434;BME280;36361;38.954;-9.002;2023-06-14T02:38:31;100716.94;;;21.22;100.00
50434;BME280;36361;38.954;-9.002;2023-06-14T02:39:32;100722.00;;;21.05;100.00
50434;BME280;36361;38.954;-9.002;2023-06-14T02:40:33;100722.59;;;20.92;100.00
50434;BME280;36361;38.954;-9.002;2023-06-14T02:41:34;100717.75;;;20.58;100.00
50434;BME280;36361;38.954;-9.002;2023-06-14T02:42:35;100719.56;;;20.88;100.00
50434;BME280;36361;38.954;-9.002;2023-06-14T02:43:38;100714.91;;;20.73;100.00
50434;BME280;36361;38.954;-9.002;2023-06-14T02:44:40;100724.88;;;20.80;100.00
50434;BME280;36361;38.954;-9.002;2023-06-14T02:45:42;100722.03;;;20.95;100.00
50434;BME280;36361;38.954;-9.002;2023-06-14T02:46:43;100723.16;;;20.84;100.00
50434;BME280;36361;38.954;-9.002;2023-06-14T02:47:51;100717.94;;;21.42;100.00
50434;BME280;36361;38.954;-9.002;2023-06-14T02:48:52;100717.13;;;21.36;100.00
50434;BME280;36361;38.954;-9.002;2023-06-14T02:49:52;100719.56;;;21.48;100.00
50434;BME280;36361;38.954;-9.002;2023-06-14T02:50:54;100723.28;;;21.23;100.00
50434;BME280;36361;38.954;-9.002;2023-06-14T02:51:56;100723.09;;;21.04;100.00
50434;BME280;36361;38.954;-9.002;2023-06-14T02:52:57;100720.00;;;21.11;100.00
50434;BME280;36361;38.954;-9.002;2023-06-14T02:53:59;100721.63;;;21.22;100.00
50434;BME280;36361;38.954;-9.002;2023-06-14T02:55:00;100727.16;;;21.32;100.00
50434;BME280;36361;38.954;-9.002;2023-06-14T02:56:00;100711.06;;;21.73;100.00
50434;BME280;36361;38.954;-9.002;2023-06-14T02:57:05;100717.66;;;21.43;100.00
50434;BME280;36361;38.954;-9.002;2023-06-14T02:58:08;100724.56;;;21.46;100.00
50434;BME280;36361;38.954;-9.002;2023-06-14T02:59:09;100716.31;;;21.36;100.00
50434;BME280;36361;38.954;-9.002;2023-06-14T03:00:11;100708.81;;;21.75;100.00
50434;BME280;36361;38.954;-9.002;2023-06-14T03:01:16;100711.81;;;21.45;100.00
50434;BME280;36361;38.954;-9.002;2023-06-14T03:02:18;100712.44;;;21.37;100.00
50434;BME280;36361;38.954;-9.002;2023-06-14T03:03:19;100708.94;;;21.11;100.00
50434;BME280;36361;38.954;-9.002;2023-06-14T03:04:26;100710.09;;;20.99;100.00
50434;BME280;36361;38.954;-9.002;2023-06-14T03:05:33;100696.50;;;21.08;100.00
50434;BME280;36361;38.954;-9.002;2023-06-14T03:06:34;100698.91;;;20.70;100.00
50434;BME280;36361;38.954;-9.002;2023-06-14T03:07:36;100706.31;;;20.85;100.00
50434;BME280;36361;38.954;-9.002;2023-06-14T03:08:41;100700.75;;;20.95;100.00
50434;BME280;36361;38.954;-9.002;2023-06-14T03:09:48;100703.28;;;21.41;100.00
50434;BME280;36361;38.954;-9.002;2023-06-14T03:10:50;100707.63;;;21.03;100.00
50434;BME280;36361;38.954;-9.002;2023-06-14T03:11:51;100695.41;;;21.09;100.00
50434;BME280;36361;38.954;-9.002;2023-06-14T03:12:52;100702.22;;;21.32;100.00
50434;BME280;36361;38.954;-9.002;2023-06-14T03:13:55;100709.19;;;21.19;100.00
50434;BME280;36361;38.954;-9.002;2023-06-14T03:14:59;100698.94;;;20.60;100.00
50434;BME280;36361;38.954;-9.002;2023-06-14T03:16:08;100702.25;;;20.67;100.00
50434;BME280;36361;38.954;-9.002;2023-06-14T03:17:13;100701.63;;;20.76;100.00
50434;BME280;36361;38.954;-9.002;2023-06-14T03:18:14;100707.19;;;20.70;100.00
50434;BME280;36361;38.954;-9.002;2023-06-14T03:19:16;100695.63;;;20.48;100.00
50434;BME280;36361;38.954;-9.002;2023-06-14T03:20:17;100700.25;;;20.73;100.00
50434;BME280;36361;38.954;-9.002;2023-06-14T03:21:21;100705.25;;;20.71;100.00
50434;BME280;36361;38.954;-9.002;2023-06-14T03:22:35;100698.34;;;20.68;100.00
50434;BME280;36361;38.954;-9.002;2023-06-14T03:23:38;100705.50;;;20.74;100.00
50434;BME280;36361;38.954;-9.002;2023-06-14T03:24:39;100708.84;;;20.66;100.00
50434;BME280;36361;38.954;-9.002;2023-06-14T03:25:51;100704.50;;;20.50;100.00
50434;BME280;36361;38.954;-9.002;2023-06-14T03:26:52;100704.19;;;20.57;100.00
50434;BME280;36361;38.954;-9.002;2023-06-14T03:27:52;100703.31;;;20.71;100.00
50434;BME280;36361;38.954;-9.002;2023-06-14T03:28:54;100700.53;;;20.77;100.00
50434;BME280;36361;38.954;-9.002;2023-06-14T03:29:56;100694.22;;;20.56;100.00
50434;BME280;36361;38.954;-9.002;2023-06-14T03:30:58;100701.16;;;20.38;100.00
50434;BME280;36361;38.954;-9.002;2023-06-14T03:32:02;100702.69;;;20.90;100.00
50434;BME280;36361;38.954;-9.002;2023-06-14T03:33:18;100698.53;;;20.92;100.00
50434;BME280;36361;38.954;-9.002;2023-06-14T03:34:19;100700.56;;;21.26;100.00
50434;BME280;36361;38.954;-9.002;2023-06-14T03:35:20;100696.50;;;21.13;100.00
50434;BME280;36361;38.954;-9.002;2023-06-14T03:36:23;100706.53;;;20.99;100.00
50434;BME280;36361;38.954;-9.002;2023-06-14T03:37:23;100696.63;;;20.88;100.00
50434;BME280;36361;38.954;-9.002;2023-06-14T03:38:24;100699.34;;;20.98;100.00
50434;BME280;36361;38.954;-9.002;2023-06-14T03:39:25;100698.81;;;20.91;100.00
50434;BME280;36361;38.954;-9.002;2023-06-14T03:40:26;100687.88;;;20.55;100.00
50434;BME280;36361;38.954;-9.002;2023-06-14T03:41:34;100698.66;;;21.21;100.00
50434;BME280;36361;38.954;-9.002;2023-06-14T03:42:35;100695.44;;;20.99;100.00
50434;BME280;36361;38.954;-9.002;2023-06-14T03:43:36;100692.69;;;20.99;100.00
50434;BME280;36361;38.954;-9.002;2023-06-14T03:44:37;100694.47;;;21.29;100.00
50434;BME280;36361;38.954;-9.002;2023-06-14T03:45:38;100684.44;;;21.43;100.00
50434;BME280;36361;38.954;-9.002;2023-06-14T03:46:39;100693.47;;;21.59;100.00
50434;BME280;36361;38.954;-9.002;2023-06-14T03:47:40;100692.44;;;21.50;100.00
50434;BME280;36361;38.954;-9.002;2023-06-14T03:48:41;100693.09;;;21.32;100.00
50434;BME280;36361;38.954;-9.002;2023-06-14T03:49:51;100698.63;;;21.32;100.00
50434;BME280;36361;38.954;-9.002;2023-06-14T03:50:52;100684.94;;;21.50;100.00
50434;BME280;36361;38.954;-9.002;2023-06-14T03:51:55;100686.34;;;21.82;100.00
50434;BME280;36361;38.954;-9.002;2023-06-14T03:53:07;100684.28;;;21.98;100.00
50434;BME280;36361;38.954;-9.002;2023-06-14T03:54:08;100686.84;;;21.55;100.00
50434;BME280;36361;38.954;-9.002;2023-06-14T03:55:14;100692.97;;;21.47;100.00
50434;BME280;36361;38.954;-9.002;2023-06-14T03:56:17;100695.81;;;21.42;100.00
50434;BME280;36361;38.954;-9.002;2023-06-14T03:57:18;100690.97;;;21.13;100.00
50434;BME280;36361;38.954;-9.002;2023-06-14T03:58:26;100699.97;;;20.85;100.00
50434;BME280;36361;38.954;-9.002;2023-06-14T03:59:41;100687.41;;;21.02;100.00
50434;BME280;36361;38.954;-9.002;2023-06-14T04:00:45;100696.56;;;21.03;100.00
50434;BME280;36361;38.954;-9.002;2023-06-14T04:02:22;100685.84;;;20.81;100.00
50434;BME280;36361;38.954;-9.002;2023-06-14T04:03:32;100690.66;;;20.55;100.00
50434;BME280;36361;38.954;-9.002;2023-06-14T04:04:42;100687.63;;;20.41;100.00
50434;BME280;36361;38.954;-9.002;2023-06-14T04:05:48;100688.66;;;20.66;100.00
50434;BME280;36361;38.954;-9.002;2023-06-14T04:08:42;100690.06;;;20.68;100.00
50434;BME280;36361;38.954;-9.002;2023-06-14T04:09:49;100686.50;;;20.58;100.00
50434;BME280;36361;38.954;-9.002;2023-06-14T04:11:00;100689.28;;;20.58;100.00
50434;BME280;36361;38.954;-9.002;2023-06-14T04:12:10;100690.41;;;20.41;100.00
50434;BME280;36361;38.954;-9.002;2023-06-14T04:13:38;100690.47;;;20.06;100.00
50434;BME280;36361;38.954;-9.002;2023-06-14T04:16:31;100691.25;;;20.11;100.00
50434;BME280;36361;38.954;-9.002;2023-06-14T04:17:39;100688.50;;;20.11;100.00
50434;BME280;36361;38.954;-9.002;2023-06-14T04:19:00;100692.09;;;19.92;100.00
50434;BME280;36361;38.954;-9.002;2023-06-14T04:20:04;100694.34;;;19.79;100.00
50434;BME280;36361;38.954;-9.002;2023-06-14T04:21:15;100697.38;;;19.88;100.00
50434;BME280;36361;38.954;-9.002;2023-06-14T04:22:28;100688.53;;;19.91;100.00
50434;BME280;36361;38.954;-9.002;2023-06-14T04:23:38;100685.22;;;19.89;100.00
50434;BME280;36361;38.954;-9.002;2023-06-14T04:24:57;100689.34;;;19.97;100.00
50434;BME280;36361;38.954;-9.002;2023-06-14T04:26:10;100685.22;;;20.04;100.00
50434;BME280;36361;38.954;-9.002;2023-06-14T04:27:14;100700.66;;;20.31;100.00
50434;BME280;36361;38.954;-9.002;2023-06-14T04:28:24;100695.81;;;20.82;100.00
50434;BME280;36361;38.954;-9.002;2023-06-14T04:29:32;100705.03;;;20.47;100.00
50434;BME280;36361;38.954;-9.002;2023-06-14T04:30:59;100695.13;;;20.21;100.00
50434;BME280;36361;38.954;-9.002;2023-06-14T04:32:16;100689.91;;;20.04;100.00
50434;BME280;36361;38.954;-9.002;2023-06-14T04:33:22;100693.69;;;20.38;100.00
50434;BME280;36361;38.954;-9.002;2023-06-14T04:34:32;100699.78;;;20.40;100.00
50434;BME280;36361;38.954;-9.002;2023-06-14T04:35:50;100691.78;;;20.49;100.00
50434;BME280;36361;38.954;-9.002;2023-06-14T04:39:54;100694.28;;;20.20;100.00
50434;BME280;36361;38.954;-9.002;2023-06-14T04:41:07;100696.25;;;20.04;100.00
50434;BME280;36361;38.954;-9.002;2023-06-14T04:42:27;100703.66;;;20.29;100.00
50434;BME280;36361;38.954;-9.002;2023-06-14T04:43:52;100694.59;;;20.08;100.00
50434;BME280;36361;38.954;-9.002;2023-06-14T04:44:57;100692.94;;;19.92;100.00
50434;BME280;36361;38.954;-9.002;2023-06-14T04:46:02;100698.19;;;20.09;100.00
50434;BME280;36361;38.954;-9.002;2023-06-14T04:47:23;100700.97;;;20.04;100.00
50434;BME280;36361;38.954;-9.002;2023-06-14T04:48:52;100691.28;;;19.91;100.00
50434;BME280;36361;38.954;-9.002;2023-06-14T04:50:08;100692.94;;;19.92;100.00
50434;BME280;36361;38.954;-9.002;2023-06-14T04:52:44;100694.03;;;19.66;100.00
50434;BME280;36361;38.954;-9.002;2023-06-14T04:53:51;100694.59;;;19.63;100.00
50434;BME280;36361;38.954;-9.002;2023-06-14T04:55:06;100697.59;;;19.51;100.00
50434;BME280;36361;38.954;-9.002;2023-06-14T04:56:25;100685.72;;;19.40;100.00
50434;BME280;36361;38.954;-9.002;2023-06-14T04:57:30;100696.16;;;19.13;100.00
50434;BME280;36361;38.954;-9.002;2023-06-14T04:58:35;100691.41;;;18.93;100.00
50434;BME280;36361;38.954;-9.002;2023-06-14T04:59:46;100695.84;;;19.09;100.00
50434;BME280;36361;38.954;-9.002;2023-06-14T05:00:49;100685.72;;;19.30;100.00
50434;BME280;36361;38.954;-9.002;2023-06-14T05:01:53;100683.50;;;19.32;100.00
50434;BME280;36361;38.954;-9.002;2023-06-14T05:03:06;100683.53;;;19.52;100.00
50434;BME280;36361;38.954;-9.002;2023-06-14T05:04:28;100682.75;;;19.57;100.00
50434;BME280;36361;38.954;-9.002;2023-06-14T05:05:42;100684.59;;;19.36;100.00
50434;BME280;36361;38.954;-9.002;2023-06-14T05:07:04;100681.09;;;19.66;100.00
50434;BME280;36361;38.954;-9.002;2023-06-14T05:08:18;100692.97;;;19.87;100.00
50434;BME280;36361;38.954;-9.002;2023-06-14T05:09:23;100686.84;;;20.00;100.00
50434;BME280;36361;38.954;-9.002;2023-06-14T05:10:30;100685.16;;;20.45;100.00
50434;BME280;36361;38.954;-9.002;2023-06-14T05:11:46;100697.28;;;20.59;100.00
50434;BME280;36361;38.954;-9.002;2023-06-14T05:12:51;100690.09;;;20.48;100.00
50434;BME280;36361;38.954;-9.002;2023-06-14T05:14:06;100691.25;;;20.32;100.00
50434;BME280;36361;38.954;-9.002;2023-06-14T05:15:19;100686.84;;;20.15;100.00
50434;BME280;36361;38.954;-9.002;2023-06-14T05:16:41;100689.34;;;20.07;100.00
50434;BME280;36361;38.954;-9.002;2023-06-14T05:17:48;100690.44;;;20.01;100.00
50434;BME280;36361;38.954;-9.002;2023-06-14T05:19:04;100689.06;;;20.13;100.00
50434;BME280;36361;38.954;-9.002;2023-06-14T05:20:08;100694.28;;;20.30;100.00
50434;BME280;36361;38.954;-9.002;2023-06-14T05:21:17;100693.97;;;20.37;100.00
50434;BME280;36361;38.954;-9.002;2023-06-14T05:22:24;100699.25;;;20.33;100.00
50434;BME280;36361;38.954;-9.002;2023-06-14T05:23:40;100691.78;;;20.29;100.00
50434;BME280;36361;38.954;-9.002;2023-06-14T05:24:50;100689.38;;;19.86;100.00
50434;BME280;36361;38.954;-9.002;2023-06-14T05:25:57;100694.59;;;20.03;100.00
50434;BME280;36361;38.954;-9.002;2023-06-14T05:27:19;100692.94;;;20.02;100.00
50434;BME280;36361;38.954;-9.002;2023-06-14T05:28:27;100689.63;;;20.00;100.00
50434;BME280;36361;38.954;-9.002;2023-06-14T05:29:39;100689.34;;;19.97;100.00
50434;BME280;36361;38.954;-9.002;2023-06-14T05:30:46;100699.31;;;20.03;100.00
50434;BME280;36361;38.954;-9.002;2023-06-14T05:32:08;100700.13;;;20.03;100.00
50434;BME280;36361;38.954;-9.002;2023-06-14T05:33:21;100694.03;;;20.06;100.00
50434;BME280;36361;38.954;-9.002;2023-06-14T05:34:28;100699.00;;;20.09;100.00
50434;BME280;36361;38.954;-9.002;2023-06-14T05:37:21;100712.81;;;19.84;100.00
50434;BME280;36361;38.954;-9.002;2023-06-14T05:38:31;100708.41;;;19.98;100.00
50434;BME280;36361;38.954;-9.002;2023-06-14T05:39:41;100712.84;;;19.94;100.00
50434;BME280;36361;38.954;-9.002;2023-06-14T05:40:48;100708.41;;;19.93;100.00
50434;BME280;36361;38.954;-9.002;2023-06-14T05:41:57;100710.34;;;19.67;100.00
50434;BME280;36361;38.954;-9.002;2023-06-14T05:43:13;100714.75;;;19.83;100.00
50434;BME280;36361;38.954;-9.002;2023-06-14T05:44:26;100714.50;;;19.85;100.00
50434;BME280;36361;38.954;-9.002;2023-06-14T05:45:33;100715.34;;;19.85;100.00